Time,TemperatureF,DewpointF,PressureIn,WindDirection,WindDirectionDegrees,WindSpeedMPH,WindSpeedGustMPH,Humidity,HourlyPrecipIn,Conditions,Clouds,dailyrainin,SoftwareType,DateUTC
2013-05-29 00:03:00,60.9,39.0,29.74,WSW,243,25.0,39.0,45,0.00,,,0.00,weatherlink.com 1.10,2013-05-29 07:03:00,
2013-05-29 00:18:00,59.6,42.0,29.75,WNW,299,20.0,30.0,53,0.00,,,0.00,weatherlink.com 1.10,2013-05-29 07:18:00,
2013-05-29 00:33:00,58.8,45.0,29.75,WNW,282,16.0,33.0,61,0.00,,,0.00,weatherlink.com 1.10,2013-05-29 07:33:00,
2013-05-29 00:49:00,58.4,46.0,29.74,NW,310,21.0,35.0,63,0.00,,,0.00,weatherlink.com 1.10,2013-05-29 07:49:00,
2013-05-29 01:03:00,57.8,46.0,29.74,West,276,22.0,31.0,64,0.00,,,0.00,weatherlink.com 1.10,2013-05-29 08:03:00,
2013-05-29 01:18:00,57.6,46.0,29.75,WNW,301,20.0,33.0,65,0.00,,,0.00,weatherlink.com 1.10,2013-05-29 08:18:00,
2013-05-29 01:33:00,57.7,45.0,29.75,West,271,21.0,29.0,64,0.00,,,0.00,weatherlink.com 1.10,2013-05-29 08:33:00,
2013-05-29 01:48:00,57.8,44.0,29.75,West,270,21.0,22.0,61,0.00,,,0.00,weatherlink.com 1.10,2013-05-29 08:48:00,
2013-05-29 02:03:00,57.6,44.0,29.75,West,274,18.0,29.0,62,0.00,,,0.00,weatherlink.com 1.10,2013-05-29 09:03:00,
2013-05-29 02:18:00,57.7,44.0,29.75,West,277,14.0,29.0,60,0.00,,,0.00,weatherlink.com 1.10,2013-05-29 09:18:00,
2013-05-29 02:33:00,58.0,42.0,29.75,WSW,257,2.0,15.0,55,0.00,,,0.00,weatherlink.com 1.10,2013-05-29 09:33:00,
2013-05-29 02:48:00,58.7,40.0,29.75,West,267,14.0,25.0,51,0.00,,,0.00,weatherlink.com 1.10,2013-05-29 09:48:00,
2013-05-29 03:03:00,59.8,36.0,29.74,West,281,8.0,28.0,42,0.00,,,0.00,weatherlink.com 1.10,2013-05-29 10:03:00,
2013-05-29 03:18:00,60.3,34.0,29.73,WNW,290,6.0,19.0,37,0.00,,,0.00,weatherlink.com 1.10,2013-05-29 10:18:00,
2013-05-29 03:33:00,60.0,37.0,29.73,West,281,11.0,20.0,42,0.00,,,0.00,weatherlink.com 1.10,2013-05-29 10:33:00,
2013-05-29 03:48:00,59.7,35.0,29.73,WNW,290,10.0,18.0,40,0.00,,,0.00,weatherlink.com 1.10,2013-05-29 10:48:00,
2013-05-29 04:03:00,60.8,33.0,29.73,WNW,285,6.0,15.0,35,0.00,,,0.00,weatherlink.com 1.10,2013-05-29 11:03:00,
2013-05-29 04:18:00,61.8,31.0,29.74,WNW,301,12.0,27.0,31,0.00,,,0.00,weatherlink.com 1.10,2013-05-29 11:18:00,
2013-05-29 04:33:00,59.7,36.0,29.74,West,263,10.0,27.0,41,0.00,,,0.00,weatherlink.com 1.10,2013-05-29 11:33:00,
2013-05-29 04:48:00,58.2,40.0,29.75,WNW,297,13.0,31.0,52,0.00,,,0.00,weatherlink.com 1.10,2013-05-29 11:48:00,
2013-05-29 05:03:00,57.8,41.0,29.74,NW,313,19.0,28.0,53,0.00,,,0.00,weatherlink.com 1.10,2013-05-29 12:03:00,
2013-05-29 05:18:00,57.5,41.0,29.75,WNW,296,22.0,30.0,55,0.00,,,0.00,weatherlink.com 1.10,2013-05-29 12:18:00,
2013-05-29 05:33:00,57.3,41.0,29.74,NW,307,21.0,30.0,54,0.00,,,0.00,weatherlink.com 1.10,2013-05-29 12:33:00,
2013-05-29 05:48:00,57.7,39.0,29.74,West,264,14.0,29.0,51,0.00,,,0.00,weatherlink.com 1.10,2013-05-29 12:48:00,
2013-05-29 06:03:00,58.9,37.0,29.74,WNW,299,23.0,29.0,44,0.00,,,0.00,weatherlink.com 1.10,2013-05-29 13:03:00,
2013-05-29 06:18:00,60.0,36.0,29.76,West,279,18.0,29.0,41,0.00,,,0.00,weatherlink.com 1.10,2013-05-29 13:18:00,
2013-05-29 06:33:00,59.9,37.0,29.76,West,262,16.0,22.0,43,0.00,,,0.00,weatherlink.com 1.10,2013-05-29 13:33:00,
2013-05-29 06:48:00,59.9,37.0,29.76,NW,309,13.0,21.0,43,0.00,,,0.00,weatherlink.com 1.10,2013-05-29 13:48:00,
2013-05-29 07:03:00,60.5,37.0,29.77,NW,304,4.0,14.0,42,0.00,,,0.00,weatherlink.com 1.10,2013-05-29 14:03:00,
2013-05-29 07:18:00,61.7,38.0,29.77,West,274,3.0,8.0,42,0.00,,,0.00,weatherlink.com 1.10,2013-05-29 14:18:00,
2013-05-29 07:33:00,61.8,36.0,29.77,WNW,287,5.0,10.0,39,0.00,,,0.00,weatherlink.com 1.10,2013-05-29 14:33:00,
2013-05-29 07:48:00,62.7,37.0,29.78,WNW,284,2.0,10.0,39,0.00,,,0.00,weatherlink.com 1.10,2013-05-29 14:48:00,
2013-05-29 08:03:00,63.9,36.0,29.78,NNW,345,2.0,18.0,35,0.00,,,0.00,weatherlink.com 1.10,2013-05-29 15:03:00,
2013-05-29 08:18:00,64.2,36.0,29.78,NW,311,3.0,19.0,35,0.00,,,0.00,weatherlink.com 1.10,2013-05-29 15:18:00,
2013-05-29 08:33:00,64.4,36.0,29.77,WNW,289,16.0,24.0,35,0.00,,,0.00,weatherlink.com 1.10,2013-05-29 15:33:00,
2013-05-29 08:48:00,64.6,38.0,29.78,WNW,296,26.0,26.0,37,0.00,,,0.00,weatherlink.com 1.10,2013-05-29 15:48:00,
2013-05-29 09:03:00,64.2,41.0,29.79,NW,313,13.0,28.0,43,0.00,,,0.00,weatherlink.com 1.10,2013-05-29 16:03:00,
2013-05-29 09:18:00,63.5,42.0,29.79,WNW,294,14.0,26.0,45,0.00,,,0.00,weatherlink.com 1.10,2013-05-29 16:18:00,
2013-05-29 09:33:00,64.9,41.0,29.79,NW,304,25.0,25.0,42,0.00,,,0.00,weatherlink.com 1.10,2013-05-29 16:33:00,
2013-05-29 09:49:00,65.7,39.0,29.79,WSW,245,18.0,30.0,38,0.00,,,0.00,weatherlink.com 1.10,2013-05-29 16:49:00,
2013-05-29 10:04:00,66.4,40.0,29.78,WNW,295,16.0,31.0,38,0.00,,,0.00,weatherlink.com 1.10,2013-05-29 17:04:00,
2013-05-29 10:19:00,67.4,40.0,29.79,WNW,303,23.0,30.0,37,0.00,,,0.00,weatherlink.com 1.10,2013-05-29 17:19:00,
2013-05-29 10:34:00,67.4,41.0,29.80,West,280,17.0,27.0,38,0.00,,,0.00,weatherlink.com 1.10,2013-05-29 17:34:00,
2013-05-29 10:49:00,68.0,41.0,29.79,WNW,296,8.0,21.0,37,0.00,,,0.00,weatherlink.com 1.10,2013-05-29 17:49:00,
2013-05-29 11:04:00,68.9,41.0,29.79,NW,315,16.0,26.0,36,0.00,,,0.00,weatherlink.com 1.10,2013-05-29 18:04:00,
2013-05-29 11:19:00,69.3,41.0,29.80,WNW,286,14.0,24.0,36,0.00,,,0.00,weatherlink.com 1.10,2013-05-29 18:19:00,
2013-05-29 11:34:00,70.1,41.0,29.80,NW,307,14.0,22.0,35,0.00,,,0.00,weatherlink.com 1.10,2013-05-29 18:34:00,
2013-05-29 11:49:00,69.9,42.0,29.80,WNW,290,17.0,24.0,36,0.00,,,0.00,weatherlink.com 1.10,2013-05-29 18:49:00,
2013-05-29 12:04:00,70.7,42.0,29.80,NW,308,14.0,20.0,35,0.00,,,0.00,weatherlink.com 1.10,2013-05-29 19:04:00,
2013-05-29 12:19:00,70.5,41.0,29.80,WNW,289,11.0,23.0,35,0.00,,,0.00,weatherlink.com 1.10,2013-05-29 19:19:00,
2013-05-29 12:34:00,70.5,41.0,29.80,WNW,295,9.0,22.0,35,0.00,,,0.00,weatherlink.com 1.10,2013-05-29 19:34:00,
2013-05-29 12:49:00,71.1,42.0,29.79,NW,308,10.0,20.0,35,0.00,,,0.00,weatherlink.com 1.10,2013-05-29 19:49:00,
2013-05-29 13:04:00,72.0,42.0,29.78,NNW,334,9.0,21.0,34,0.00,,,0.00,weatherlink.com 1.10,2013-05-29 20:04:00,
2013-05-29 13:19:00,72.8,42.0,29.78,North,356,12.0,20.0,33,0.00,,,0.00,weatherlink.com 1.10,2013-05-29 20:19:00,
2013-05-29 13:34:00,72.5,42.0,29.77,NW,322,11.0,20.0,34,0.00,,,0.00,weatherlink.com 1.10,2013-05-29 20:34:00,
2013-05-29 13:49:00,73.1,43.0,29.77,NW,317,11.0,26.0,34,0.00,,,0.00,weatherlink.com 1.10,2013-05-29 20:49:00,
2013-05-29 14:04:00,73.3,45.0,29.76,West,271,15.0,22.0,36,0.00,,,0.00,weatherlink.com 1.10,2013-05-29 21:04:00,
2013-05-29 14:19:00,73.2,45.0,29.76,NW,309,10.0,24.0,36,0.00,,,0.00,weatherlink.com 1.10,2013-05-29 21:19:00,
2013-05-29 14:34:00,74.0,46.0,29.75,WNW,293,8.0,22.0,37,0.00,,,0.00,weatherlink.com 1.10,2013-05-29 21:34:00,
2013-05-29 14:49:00,73.9,45.0,29.75,WNW,291,22.0,29.0,36,0.00,,,0.00,weatherlink.com 1.10,2013-05-29 21:49:00,
2013-05-29 15:04:00,74.2,47.0,29.74,NNW,337,16.0,30.0,38,0.00,,,0.00,weatherlink.com 1.10,2013-05-29 22:04:00,
2013-05-29 15:19:00,74.2,42.0,29.73,WNW,294,13.0,29.0,32,0.00,,,0.00,weatherlink.com 1.10,2013-05-29 22:19:00,
2013-05-29 15:34:00,75.0,43.0,29.73,North,2,15.0,25.0,32,0.00,,,0.00,weatherlink.com 1.10,2013-05-29 22:34:00,
2013-05-29 15:49:00,75.4,42.0,29.72,NW,320,13.0,23.0,30,0.00,,,0.00,weatherlink.com 1.10,2013-05-29 22:49:00,
2013-05-29 16:04:00,74.9,41.0,29.72,WNW,300,13.0,25.0,29,0.00,,,0.00,weatherlink.com 1.10,2013-05-29 23:04:00,
2013-05-29 16:19:00,74.5,37.0,29.72,NW,304,12.0,26.0,26,0.00,,,0.00,weatherlink.com 1.10,2013-05-29 23:19:00,
2013-05-29 16:34:00,74.2,38.0,29.71,NW,311,18.0,28.0,27,0.00,,,0.00,weatherlink.com 1.10,2013-05-29 23:34:00,
2013-05-29 16:49:00,74.4,36.0,29.70,NNW,338,17.0,27.0,25,0.00,,,0.00,weatherlink.com 1.10,2013-05-29 23:49:00,
2013-05-29 17:04:00,73.7,38.0,29.70,WNW,286,13.0,32.0,27,0.00,,,0.00,weatherlink.com 1.10,2013-05-30 00:04:00,
2013-05-29 17:19:00,73.5,36.0,29.70,WNW,303,18.0,30.0,25,0.00,,,0.00,weatherlink.com 1.10,2013-05-30 00:19:00,
2013-05-29 17:34:00,72.5,33.0,29.71,NW,314,14.0,28.0,23,0.00,,,0.00,weatherlink.com 1.10,2013-05-30 00:34:00,
2013-05-29 17:49:00,72.1,31.0,29.71,West,272,14.0,29.0,22,0.00,,,0.00,weatherlink.com 1.10,2013-05-30 00:49:00,
2013-05-29 18:04:00,71.6,34.0,29.70,West,276,12.0,24.0,25,0.00,,,0.00,weatherlink.com 1.10,2013-05-30 01:04:00,
2013-05-29 18:19:00,71.8,29.0,29.70,WNW,300,10.0,22.0,20,0.00,,,0.00,weatherlink.com 1.10,2013-05-30 01:19:00,
2013-05-29 18:34:00,71.6,31.0,29.71,NW,304,13.0,23.0,22,0.00,,,0.00,weatherlink.com 1.10,2013-05-30 01:34:00,
2013-05-29 18:49:00,70.4,35.0,29.71,NNW,342,6.0,20.0,27,0.00,,,0.00,weatherlink.com 1.10,2013-05-30 01:49:00,
2013-05-29 19:04:00,69.4,37.0,29.71,WNW,282,13.0,21.0,31,0.00,,,0.00,weatherlink.com 1.10,2013-05-30 02:04:00,
2013-05-29 19:19:00,68.6,38.0,29.70,WNW,302,19.0,27.0,33,0.00,,,0.00,weatherlink.com 1.10,2013-05-30 02:19:00,
2013-05-29 19:34:00,67.5,40.0,29.69,WSW,255,21.0,31.0,37,0.00,,,0.00,weatherlink.com 1.10,2013-05-30 02:34:00,
2013-05-29 19:49:00,66.3,40.0,29.67,West,275,24.0,40.0,39,0.00,,,0.00,weatherlink.com 1.10,2013-05-30 02:49:00,
2013-05-29 20:04:00,65.8,41.0,29.67,West,265,30.0,39.0,41,0.00,,,0.00,weatherlink.com 1.10,2013-05-30 03:04:00,
2013-05-29 20:19:00,66.0,36.0,29.67,West,269,30.0,38.0,33,0.00,,,0.00,weatherlink.com 1.10,2013-05-30 03:19:00,
2013-05-29 20:34:00,65.6,38.0,29.66,WNW,302,28.0,38.0,36,0.00,,,0.00,weatherlink.com 1.10,2013-05-30 03:34:00,
2013-05-29 20:49:00,65.8,37.0,29.67,West,271,34.0,42.0,34,0.00,,,0.00,weatherlink.com 1.10,2013-05-30 03:49:00,
2013-05-29 21:05:00,65.5,38.0,29.68,West,263,22.0,49.0,36,0.00,,,0.00,weatherlink.com 1.10,2013-05-30 04:05:00,
2013-05-29 21:20:00,65.2,40.0,29.69,WNW,295,35.0,42.0,40,0.00,,,0.00,weatherlink.com 1.10,2013-05-30 04:20:00,
2013-05-29 21:35:00,65.3,42.0,29.68,WNW,294,29.0,41.0,43,0.00,,,0.00,weatherlink.com 1.10,2013-05-30 04:35:00,
2013-05-29 21:50:00,65.8,41.0,29.71,WSW,255,5.0,45.0,41,0.00,,,0.00,weatherlink.com 1.10,2013-05-30 04:50:00,
2013-05-29 22:05:00,65.1,41.0,29.72,WSW,255,3.0,21.0,41,0.00,,,0.00,weatherlink.com 1.10,2013-05-30 05:05:00,
2013-05-29 22:20:00,64.9,40.0,29.72,SW,231,18.0,21.0,41,0.00,,,0.00,weatherlink.com 1.10,2013-05-30 05:20:00,
2013-05-29 22:35:00,65.2,40.0,29.71,West,274,16.0,22.0,40,0.00,,,0.00,weatherlink.com 1.10,2013-05-30 05:35:00,
2013-05-29 22:50:00,64.8,41.0,29.73,NNW,335,7.0,20.0,42,0.00,,,0.00,weatherlink.com 1.10,2013-05-30 05:50:00,
2013-05-29 23:05:00,63.9,42.0,29.73,NW,304,4.0,19.0,45,0.00,,,0.00,weatherlink.com 1.10,2013-05-30 06:05:00,
2013-05-29 23:20:00,63.0,41.0,29.73,NW,311,7.0,7.0,44,0.00,,,0.00,weatherlink.com 1.10,2013-05-30 06:20:00,
2013-05-29 23:35:00,63.5,41.0,29.73,WNW,284,7.0,12.0,44,0.00,,,0.00,weatherlink.com 1.10,2013-05-30 06:35:00,
2013-05-29 23:50:00,63.5,41.0,29.73,NW,312,10.0,18.0,44,0.00,,,0.00,weatherlink.com 1.10,2013-05-30 06:50:00,